createdAt,value
2017-11-13T00:01:28.905Z,4.70
2017-11-13T00:03:57.300Z,4.70
2017-11-13T00:06:25.663Z,4.80
2017-11-13T00:08:54.018Z,4.80
2017-11-13T00:11:21.647Z,4.80
2017-11-13T00:13:49.230Z,4.90
2017-11-13T00:16:16.835Z,4.80
2017-11-13T00:18:45.192Z,4.80
2017-11-13T00:21:13.575Z,4.80
2017-11-13T00:23:41.188Z,4.70
2017-11-13T00:26:08.755Z,4.70
2017-11-13T00:28:36.317Z,4.70
2017-11-13T00:31:03.938Z,4.80
2017-11-13T00:33:31.514Z,4.80
2017-11-13T00:35:59.096Z,4.80
2017-11-13T00:38:26.762Z,4.80
2017-11-13T00:40:54.375Z,4.70
2017-11-13T00:43:22.746Z,4.80
2017-11-13T00:45:50.374Z,4.80
2017-11-13T00:48:17.979Z,4.80
2017-11-13T00:50:46.320Z,4.80
2017-11-13T00:53:13.923Z,4.80
2017-11-13T00:55:42.291Z,5.00
2017-11-13T00:58:10.611Z,4.90
2017-11-13T01:00:38.178Z,4.90
2017-11-13T01:03:05.767Z,4.80
2017-11-13T01:05:33.374Z,4.90
2017-11-13T01:08:00.926Z,4.80
2017-11-13T01:10:29.247Z,4.80
2017-11-13T01:12:56.837Z,4.80
2017-11-13T01:15:24.391Z,4.90
2017-11-13T01:17:51.992Z,4.90
2017-11-13T01:20:19.573Z,4.90
2017-11-13T01:22:47.196Z,4.90
2017-11-13T01:25:15.528Z,4.90
2017-11-13T01:27:43.091Z,4.90
2017-11-13T01:30:10.688Z,5.00
2017-11-13T01:32:39.023Z,5.00
2017-11-13T01:35:06.620Z,5.00
2017-11-13T01:37:34.192Z,5.00
2017-11-13T01:40:02.559Z,5.00
2017-11-13T01:42:30.130Z,4.90
2017-11-13T01:44:58.504Z,4.90
2017-11-13T01:47:26.869Z,4.90
2017-11-13T01:49:54.439Z,4.90
2017-11-13T01:52:22.033Z,4.90
2017-11-13T01:54:49.601Z,4.90
2017-11-13T01:57:17.219Z,4.90
2017-11-13T01:59:44.784Z,4.90
2017-11-13T02:02:12.339Z,4.90
2017-11-13T02:04:39.951Z,5.00
2017-11-13T02:07:07.558Z,5.00
2017-11-13T02:09:35.121Z,5.00
2017-11-13T02:12:02.718Z,5.10
2017-11-13T02:14:30.279Z,4.90
2017-11-13T02:16:58.637Z,5.00
2017-11-13T02:19:26.970Z,4.90
2017-11-13T02:21:54.560Z,4.90
2017-11-13T02:24:22.120Z,4.90
2017-11-13T02:26:49.714Z,4.90
2017-11-13T02:29:18.071Z,4.90
2017-11-13T02:31:45.634Z,4.90
2017-11-13T02:34:13.230Z,4.80
2017-11-13T02:36:40.826Z,4.90
2017-11-13T02:39:08.441Z,4.90
2017-11-13T02:41:36.052Z,4.90
2017-11-13T02:44:03.631Z,4.90
2017-11-13T02:46:31.218Z,4.80
2017-11-13T02:48:59.553Z,4.80
2017-11-13T02:51:27.136Z,4.80
2017-11-13T02:53:54.690Z,4.90
2017-11-13T02:56:22.344Z,4.90
2017-11-13T02:58:49.901Z,4.90
2017-11-13T03:01:17.464Z,5.00
2017-11-13T03:03:45.093Z,5.00
2017-11-13T03:06:12.644Z,4.90
2017-11-13T03:08:40.258Z,4.90
2017-11-13T03:11:07.815Z,4.90
2017-11-13T03:13:35.369Z,4.80
2017-11-13T03:16:02.974Z,4.80
2017-11-13T03:18:30.544Z,5.00
2017-11-13T03:20:58.263Z,4.90
2017-11-13T03:23:26.661Z,4.90
2017-11-13T03:25:54.983Z,5.00
2017-11-13T03:28:22.536Z,5.00
2017-11-13T03:30:50.141Z,4.90
2017-11-13T03:33:18.503Z,4.90
2017-11-13T03:35:46.064Z,4.90
2017-11-13T03:38:13.670Z,4.90
2017-11-13T03:40:41.995Z,4.80
2017-11-13T03:43:09.547Z,4.80
2017-11-13T03:45:37.160Z,4.90
2017-11-13T03:48:05.485Z,4.90
2017-11-13T03:50:33.066Z,4.90
2017-11-13T03:53:00.684Z,5.00
2017-11-13T03:55:28.283Z,5.10
2017-11-13T03:57:55.837Z,5.10
2017-11-13T04:00:23.426Z,5.10
2017-11-13T04:02:51.015Z,5.00
2017-11-13T04:05:19.383Z,4.90
2017-11-13T04:07:47.749Z,4.90
2017-11-13T04:10:16.117Z,4.90
2017-11-13T04:12:43.753Z,4.90
2017-11-13T04:15:11.359Z,4.80
2017-11-13T04:17:39.687Z,4.90
2017-11-13T04:20:07.247Z,4.90
2017-11-13T04:22:34.838Z,4.80
2017-11-13T04:25:02.436Z,4.80
2017-11-13T04:27:30.294Z,4.80
2017-11-13T04:29:58.651Z,4.80
2017-11-13T04:32:26.243Z,4.80
2017-11-13T04:34:54.586Z,4.80
2017-11-13T04:37:22.183Z,4.80
2017-11-13T04:39:50.559Z,4.80
2017-11-13T04:42:18.890Z,4.80
2017-11-13T04:44:46.493Z,4.80
2017-11-13T04:47:14.820Z,4.70
2017-11-13T04:49:42.368Z,4.70
2017-11-13T04:52:09.971Z,4.70
2017-11-13T04:54:37.534Z,4.70
2017-11-13T04:57:05.120Z,4.70
2017-11-13T04:59:33.440Z,4.80
2017-11-13T05:02:01.047Z,4.80
2017-11-13T05:04:29.412Z,4.80
2017-11-13T05:06:56.994Z,4.80
2017-11-13T05:09:25.364Z,4.80
2017-11-13T05:11:53.702Z,4.80
2017-11-13T05:14:21.294Z,4.80
2017-11-13T05:16:48.858Z,4.80
2017-11-13T05:19:16.467Z,4.90
2017-11-13T05:21:44.021Z,4.90
2017-11-13T05:24:11.595Z,4.90
2017-11-13T05:26:39.204Z,4.90
2017-11-13T05:29:07.559Z,4.70
2017-11-13T05:31:35.120Z,4.70
2017-11-13T05:34:02.740Z,4.80
2017-11-13T05:36:30.338Z,4.90
2017-11-13T05:38:57.953Z,4.90
2017-11-13T05:41:25.536Z,4.90
2017-11-13T05:43:53.099Z,4.90
2017-11-13T05:46:20.704Z,4.90
2017-11-13T05:48:48.307Z,4.90
2017-11-13T05:51:15.870Z,4.90
2017-11-13T05:53:43.435Z,4.80
2017-11-13T05:56:11.040Z,4.90
2017-11-13T05:58:38.595Z,5.00
2017-11-13T06:01:06.172Z,4.90
2017-11-13T06:03:34.528Z,5.00
2017-11-13T06:06:02.088Z,5.00
2017-11-13T06:08:29.695Z,5.00
2017-11-13T06:10:57.268Z,4.90
2017-11-13T06:13:24.875Z,4.90
2017-11-13T06:15:52.505Z,4.80
2017-11-13T06:18:20.076Z,4.90
2017-11-13T06:20:47.634Z,5.00
2017-11-13T06:23:15.239Z,5.00
2017-11-13T06:25:43.569Z,4.90
2017-11-13T06:28:11.137Z,4.90
2017-11-13T06:30:38.745Z,5.00
2017-11-13T06:33:07.067Z,4.90
2017-11-13T06:35:34.723Z,4.90
2017-11-13T06:38:03.165Z,5.00
2017-11-13T06:40:31.561Z,5.00
2017-11-13T06:42:59.938Z,4.90
2017-11-13T06:45:27.550Z,4.90
2017-11-13T06:47:55.180Z,5.00
2017-11-13T06:50:22.768Z,4.90
2017-11-13T06:52:50.340Z,4.90
2017-11-13T06:55:17.955Z,5.00
2017-11-13T06:57:45.541Z,5.00
2017-11-13T07:00:13.096Z,5.00
2017-11-13T07:02:40.711Z,5.00
2017-11-13T07:05:09.038Z,5.00
2017-11-13T07:07:36.725Z,5.00
2017-11-13T07:10:04.407Z,5.00
2017-11-13T07:12:32.066Z,5.10
2017-11-13T07:14:59.669Z,5.00
2017-11-13T07:17:27.351Z,5.10
2017-11-13T07:19:54.977Z,5.20
2017-11-13T07:22:23.654Z,5.20
2017-11-13T07:24:51.749Z,5.20
2017-11-13T07:27:19.719Z,5.20
2017-11-13T07:29:47.492Z,5.20
2017-11-13T07:32:15.175Z,5.40
2017-11-13T07:34:43.033Z,5.30
2017-11-13T07:37:10.745Z,5.40
2017-11-13T07:39:39.483Z,5.60
2017-11-13T07:42:07.169Z,5.60
2017-11-13T07:44:35.228Z,5.90
2017-11-13T07:47:03.928Z,5.90
2017-11-13T07:49:32.433Z,5.90
2017-11-13T07:52:00.871Z,5.90
2017-11-13T07:54:28.722Z,5.90
2017-11-13T07:56:56.383Z,5.70
2017-11-13T07:59:24.795Z,5.80
2017-11-13T08:02:05.036Z,5.80
2017-11-13T08:04:33.972Z,6.00
2017-11-13T08:07:02.806Z,6.00
2017-11-13T08:09:30.777Z,6.10
2017-11-13T08:11:58.548Z,6.00
2017-11-13T08:14:26.502Z,6.10
2017-11-13T08:16:54.140Z,6.10
2017-11-13T08:19:22.467Z,6.20
2017-11-13T08:21:50.075Z,6.20
2017-11-13T08:24:18.407Z,6.00
2017-11-13T08:26:46.046Z,6.00
2017-11-13T08:29:13.601Z,5.80
2017-11-13T08:31:41.159Z,5.80
2017-11-13T08:34:08.871Z,5.80
2017-11-13T08:36:36.474Z,5.90
2017-11-13T08:39:04.979Z,5.90
2017-11-13T08:41:32.556Z,5.80
2017-11-13T08:44:00.176Z,5.80
2017-11-13T08:46:28.544Z,5.80
2017-11-13T08:48:56.907Z,5.70
2017-11-13T08:51:24.487Z,5.70
2017-11-13T08:53:52.843Z,5.70
2017-11-13T08:56:20.496Z,5.70
2017-11-13T08:58:48.159Z,5.70
2017-11-13T09:01:15.783Z,5.90
2017-11-13T09:03:43.377Z,6.00
2017-11-13T09:06:10.982Z,6.30
2017-11-13T09:08:39.341Z,6.20
2017-11-13T09:11:07.733Z,6.20
2017-11-13T09:13:36.372Z,6.30
2017-11-13T09:16:03.976Z,6.30
2017-11-13T09:18:32.355Z,6.50
2017-11-13T09:21:00.692Z,6.50
2017-11-13T09:23:28.346Z,6.40
2017-11-13T09:25:56.663Z,6.50
2017-11-13T09:28:24.225Z,6.50
2017-11-13T09:30:51.845Z,6.50
2017-11-13T09:33:19.475Z,6.30
2017-11-13T09:35:47.084Z,6.40
2017-11-13T09:38:14.646Z,6.20
2017-11-13T09:40:43.251Z,6.30
2017-11-13T09:43:10.856Z,6.30
2017-11-13T09:45:38.455Z,6.30
2017-11-13T09:48:06.236Z,6.20
2017-11-13T09:50:33.871Z,6.30
2017-11-13T09:53:01.478Z,6.40
2017-11-13T09:55:29.886Z,6.50
2017-11-13T09:57:57.518Z,6.40
2017-11-13T10:00:25.135Z,6.50
2017-11-13T10:02:52.699Z,6.50
2017-11-13T10:05:20.271Z,6.60
2017-11-13T10:07:48.522Z,6.50
2017-11-13T10:10:16.107Z,6.40
2017-11-13T10:12:43.738Z,6.40
2017-11-13T10:15:11.317Z,6.40
2017-11-13T10:17:39.115Z,6.40
2017-11-13T10:20:08.884Z,6.30
2017-11-13T10:22:37.680Z,6.30
2017-11-13T10:25:05.319Z,6.40
2017-11-13T10:27:33.195Z,6.40
2017-11-13T10:30:00.809Z,6.50
2017-11-13T10:32:29.447Z,6.50
2017-11-13T10:34:57.061Z,6.50
2017-11-13T10:37:25.472Z,6.20
2017-11-13T10:39:53.111Z,6.20
2017-11-13T10:42:21.476Z,6.40
2017-11-13T10:44:49.131Z,6.30
2017-11-13T10:47:16.711Z,6.50
2017-11-13T10:49:44.405Z,6.60
2017-11-13T10:52:11.982Z,6.70
2017-11-13T10:54:40.082Z,6.70
2017-11-13T10:57:07.777Z,6.70
2017-11-13T10:59:35.943Z,6.80
2017-11-13T11:02:04.607Z,6.60
2017-11-13T11:04:51.086Z,6.70
2017-11-13T11:07:20.383Z,6.70
2017-11-13T11:09:48.824Z,6.70
2017-11-13T11:12:32.464Z,6.80
2017-11-13T11:15:02.791Z,6.70
2017-11-13T11:17:45.546Z,6.90
2017-11-13T11:20:28.480Z,7.00
2017-11-13T11:23:12.803Z,6.90
2017-11-13T11:26:00.392Z,6.90
2017-11-13T11:28:42.356Z,6.80
2017-11-13T11:31:25.763Z,6.90
2017-11-13T11:34:12.056Z,7.00
2017-11-13T11:36:57.171Z,7.20
2017-11-13T11:39:24.728Z,7.40
2017-11-13T11:41:52.570Z,8.10
2017-11-13T11:44:41.084Z,10.00
2017-11-13T11:47:08.754Z,12.20
2017-11-13T11:49:56.916Z,12.00
2017-11-13T11:52:25.123Z,12.00
2017-11-13T11:54:52.735Z,11.40
2017-11-13T11:57:35.197Z,11.20
2017-11-13T12:00:02.850Z,10.90
2017-11-13T12:02:30.667Z,11.60
2017-11-13T12:04:59.018Z,10.50
2017-11-13T12:07:27.431Z,10.50
2017-11-13T12:09:55.074Z,9.90
2017-11-13T12:12:23.460Z,9.30
2017-11-13T12:14:51.799Z,9.10
2017-11-13T12:17:19.395Z,9.10
2017-11-13T12:19:47.083Z,8.90
2017-11-13T12:22:14.652Z,9.10
2017-11-13T12:24:42.313Z,9.00
2017-11-13T12:27:09.872Z,9.00
2017-11-13T12:29:37.460Z,8.90
2017-11-13T12:32:05.018Z,9.00
2017-11-13T12:34:32.646Z,9.10
2017-11-13T12:37:01.059Z,8.70
2017-11-13T12:39:28.640Z,8.70
2017-11-13T12:41:56.328Z,8.70
2017-11-13T12:44:24.011Z,8.70
2017-11-13T12:46:51.718Z,8.70
2017-11-13T12:49:19.289Z,8.40
2017-11-13T12:51:46.870Z,8.60
2017-11-13T12:54:14.549Z,8.60
2017-11-13T12:56:42.879Z,8.50
2017-11-13T12:59:10.495Z,8.40
2017-11-13T13:01:38.886Z,8.20
2017-11-13T13:04:06.551Z,8.20
2017-11-13T13:06:34.238Z,8.00
2017-11-13T13:09:01.850Z,7.90
2017-11-13T13:11:29.565Z,7.80
2017-11-13T13:13:57.146Z,8.10
2017-11-13T13:16:24.727Z,8.40
2017-11-13T13:18:52.346Z,8.50
2017-11-13T13:21:19.942Z,8.80
2017-11-13T13:23:47.542Z,8.70
2017-11-13T13:26:15.112Z,8.50
2017-11-13T13:28:43.173Z,8.50
2017-11-13T13:31:10.911Z,8.60
2017-11-13T13:33:38.567Z,8.40
2017-11-13T13:36:06.158Z,8.40
2017-11-13T13:38:33.747Z,8.40
2017-11-13T13:41:01.467Z,8.10
2017-11-13T13:43:29.818Z,7.80
2017-11-13T13:45:57.370Z,7.80
2017-11-13T13:48:25.076Z,7.90
2017-11-13T13:50:53.438Z,7.90
2017-11-13T13:53:21.115Z,7.90
2017-11-13T13:55:48.686Z,7.80
2017-11-13T13:58:16.372Z,7.70
2017-11-13T14:03:50.816Z,7.70
2017-11-13T14:06:46.314Z,7.60
2017-11-13T14:09:35.794Z,7.60
2017-11-13T14:12:06.047Z,7.70
2017-11-13T14:14:41.387Z,7.70
2017-11-13T14:17:09.155Z,7.80
2017-11-13T14:19:45.784Z,8.20
2017-11-13T14:22:26.308Z,8.30
2017-11-13T14:28:29.928Z,8.30
2017-11-13T14:30:57.726Z,8.20
2017-11-13T14:33:26.111Z,8.10
2017-11-13T14:35:54.461Z,8.10
2017-11-13T14:38:22.071Z,8.10
2017-11-13T14:40:49.629Z,8.10
2017-11-13T14:43:17.322Z,8.00
2017-11-13T14:45:44.949Z,8.00
2017-11-13T14:48:13.262Z,8.10
2017-11-13T14:50:40.855Z,8.10
2017-11-13T14:53:08.422Z,8.20
2017-11-13T14:55:36.762Z,8.20
2017-11-13T14:58:04.372Z,8.20
2017-11-13T15:00:32.771Z,8.10
2017-11-13T15:03:00.498Z,8.10
2017-11-13T15:05:28.860Z,7.90
2017-11-13T15:07:56.483Z,7.80
2017-11-13T15:10:24.351Z,7.80
2017-11-13T15:12:51.919Z,7.80
2017-11-13T15:15:19.531Z,7.80
2017-11-13T15:17:47.565Z,7.90
2017-11-13T15:20:15.181Z,7.80
2017-11-13T15:22:43.543Z,7.90
2017-11-13T15:25:11.278Z,7.80
2017-11-13T15:27:38.852Z,7.80
2017-11-13T15:30:06.463Z,7.70
2017-11-13T15:32:34.136Z,4.90
2017-11-13T15:35:01.739Z,7.80
2017-11-13T15:37:29.347Z,7.70
2017-11-13T15:39:57.958Z,7.70
2017-11-13T15:42:25.545Z,7.70
2017-11-13T15:44:54.411Z,7.70
2017-11-13T15:47:22.824Z,7.60
2017-11-13T15:49:50.390Z,7.60
2017-11-13T15:52:19.642Z,7.60
2017-11-13T15:54:47.976Z,7.60
2017-11-13T15:57:16.350Z,7.50
2017-11-13T15:59:44.103Z,7.50
2017-11-13T16:02:11.714Z,7.40
2017-11-13T16:04:39.310Z,7.20
2017-11-13T16:07:08.201Z,7.10
2017-11-13T16:09:36.773Z,7.20
2017-11-13T16:12:05.861Z,7.10
2017-11-13T16:14:34.631Z,7.10
2017-11-13T16:17:03.395Z,7.10
2017-11-13T16:19:31.952Z,7.10
2017-11-13T16:22:00.343Z,7.10
2017-11-13T16:24:29.915Z,7.00
2017-11-13T16:26:58.963Z,7.10
2017-11-13T16:29:29.717Z,7.10
2017-11-13T16:31:58.649Z,7.10
2017-11-13T16:34:28.673Z,7.00
2017-11-13T16:37:03.244Z,7.10
2017-11-13T16:42:56.693Z,6.80
2017-11-13T16:45:26.731Z,6.80
2017-11-13T16:47:54.365Z,6.80
2017-11-13T16:50:21.934Z,6.70
2017-11-13T16:52:49.504Z,6.80
2017-11-13T16:55:17.668Z,6.60
2017-11-13T16:57:45.235Z,6.60
2017-11-13T17:00:12.819Z,6.50
2017-11-13T17:02:41.224Z,6.50
2017-11-13T17:05:08.834Z,6.50
2017-11-13T17:07:38.162Z,6.60
2017-11-13T17:10:08.055Z,6.70
2017-11-13T17:12:37.613Z,6.60
2017-11-13T17:15:08.597Z,6.60
2017-11-13T17:17:40.230Z,6.60
2017-11-13T17:20:10.233Z,6.60
2017-11-13T17:22:39.951Z,6.60
2017-11-13T17:25:09.872Z,6.60
2017-11-13T17:27:39.768Z,6.60
2017-11-13T17:30:09.857Z,6.60
2017-11-13T17:32:40.484Z,6.60
2017-11-13T17:35:11.489Z,6.50
2017-11-13T17:37:42.202Z,6.40
2017-11-13T17:40:11.810Z,6.40
2017-11-13T17:42:41.483Z,6.30
2017-11-13T17:45:12.330Z,6.10
2017-11-13T17:47:41.717Z,6.10
2017-11-13T17:50:12.372Z,6.10
2017-11-13T17:52:42.804Z,5.90
2017-11-13T17:55:13.610Z,5.90
2017-11-13T17:57:43.400Z,5.90
2017-11-13T18:00:13.319Z,5.90
2017-11-13T18:02:42.968Z,5.80
2017-11-13T18:05:13.534Z,5.60
2017-11-13T18:07:43.284Z,5.50
2017-11-13T18:10:12.536Z,5.50
2017-11-13T18:12:42.360Z,5.60
2017-11-13T18:15:12.257Z,5.50
2017-11-13T18:17:42.590Z,5.40
2017-11-13T18:20:13.200Z,5.30
2017-11-13T18:22:44.231Z,5.30
2017-11-13T18:25:15.326Z,5.30
2017-11-13T18:27:45.167Z,5.30
2017-11-13T18:30:15.070Z,5.20
2017-11-13T18:32:44.029Z,5.20
2017-11-13T18:35:13.899Z,5.00
2017-11-13T18:37:43.796Z,4.80
2017-11-13T18:40:13.331Z,4.80
2017-11-13T18:42:43.957Z,4.70
2017-11-13T18:45:14.465Z,4.70
2017-11-13T18:47:44.236Z,4.60
2017-11-13T18:50:13.988Z,4.60
2017-11-13T18:52:44.457Z,4.50
2017-11-13T18:55:15.072Z,4.50
2017-11-13T18:57:45.117Z,4.40
2017-11-13T19:00:14.990Z,4.40
2017-11-13T19:02:45.484Z,4.20
2017-11-13T19:05:15.218Z,4.20
2017-11-13T19:07:45.135Z,4.30
2017-11-13T19:10:14.818Z,4.30
2017-11-13T19:12:45.134Z,4.40
2017-11-13T19:15:14.873Z,4.20
2017-11-13T19:17:44.628Z,4.00
2017-11-13T19:20:18.842Z,3.90
2017-11-13T19:22:50.155Z,3.90
2017-11-13T19:25:18.479Z,3.90
2017-11-13T19:27:46.868Z,4.00
2017-11-13T19:30:15.520Z,4.10
2017-11-13T19:32:46.306Z,3.80
2017-11-13T19:35:16.545Z,3.80
2017-11-13T19:37:45.592Z,3.70
2017-11-13T19:40:15.389Z,3.70
2017-11-13T19:42:47.640Z,3.60
2017-11-13T19:45:16.122Z,3.60
2017-11-13T19:47:45.566Z,3.60
2017-11-13T19:50:13.807Z,3.60
2017-11-13T19:52:42.312Z,3.60
2017-11-13T19:55:11.924Z,3.80
2017-11-13T19:57:41.044Z,3.90
2017-11-13T20:00:09.271Z,3.80
2017-11-13T20:02:38.929Z,3.70
2017-11-13T20:05:08.161Z,3.70
2017-11-13T20:07:41.841Z,3.60
2017-11-13T20:10:10.895Z,3.60
2017-11-13T20:12:39.925Z,3.50
2017-11-13T20:15:09.199Z,3.40
2017-11-13T20:17:39.296Z,3.20
2017-11-13T20:20:09.608Z,3.20
2017-11-13T20:22:39.002Z,3.20
2017-11-13T20:25:08.313Z,3.30
2017-11-13T20:27:36.844Z,3.30
2017-11-13T20:30:05.214Z,3.30
2017-11-13T20:32:34.972Z,3.30
2017-11-13T20:35:03.161Z,3.20
2017-11-13T20:37:31.366Z,3.20
2017-11-13T20:40:00.322Z,3.10
2017-11-13T20:42:28.646Z,3.20
2017-11-13T20:44:58.020Z,3.20
2017-11-13T20:47:27.371Z,3.10
2017-11-13T20:49:57.020Z,3.10
2017-11-13T20:52:26.861Z,3.10
2017-11-13T20:54:58.179Z,3.10
2017-11-13T20:57:28.019Z,3.10
2017-11-13T20:59:57.453Z,3.20
2017-11-13T21:02:28.476Z,3.10
2017-11-13T21:04:59.468Z,3.10
2017-11-13T21:07:30.010Z,2.90
2017-11-13T21:09:59.703Z,2.90
2017-11-13T21:12:30.006Z,2.90
2017-11-13T21:14:58.632Z,3.10
2017-11-13T21:17:28.007Z,3.00
2017-11-13T21:19:57.258Z,3.10
2017-11-13T21:22:27.796Z,2.90
2017-11-13T21:24:57.467Z,2.80
2017-11-13T21:27:27.242Z,2.70
2017-11-13T21:29:57.037Z,2.60
2017-11-13T21:32:27.221Z,2.70
2017-11-13T21:34:56.718Z,2.60
2017-11-13T21:37:26.309Z,2.80
2017-11-13T21:39:54.222Z,2.80
2017-11-13T21:42:23.310Z,2.90
2017-11-13T21:44:52.584Z,2.80
2017-11-13T21:47:23.388Z,2.70
2017-11-13T21:49:52.166Z,2.80
2017-11-13T21:52:21.457Z,2.80
2017-11-13T21:54:52.007Z,2.80
2017-11-13T21:57:21.325Z,2.80
2017-11-13T21:59:50.338Z,2.90
2017-11-13T22:02:18.955Z,2.80
2017-11-13T22:04:46.886Z,2.70
2017-11-13T22:07:16.755Z,2.70
2017-11-13T22:09:47.046Z,2.80
2017-11-13T22:12:16.522Z,2.80
2017-11-13T22:14:45.879Z,2.80
2017-11-13T22:17:15.890Z,2.80
2017-11-13T22:19:44.919Z,2.80
2017-11-13T22:22:13.275Z,2.90
2017-11-13T22:24:43.183Z,2.80
2017-11-13T22:27:13.713Z,2.80
2017-11-13T22:29:44.124Z,2.90
2017-11-13T22:32:13.772Z,2.90
2017-11-13T22:34:43.302Z,2.90
2017-11-13T22:37:12.759Z,2.80
2017-11-13T22:39:42.189Z,2.80
2017-11-13T22:42:11.725Z,2.70
2017-11-13T22:44:40.375Z,2.70
2017-11-13T22:47:10.467Z,2.90
2017-11-13T22:49:40.002Z,2.90
2017-11-13T22:52:11.665Z,2.90
2017-11-13T22:54:41.258Z,2.90
2017-11-13T22:57:11.452Z,3.10
2017-11-13T22:59:40.287Z,3.10
2017-11-13T23:02:09.165Z,3.20
2017-11-13T23:04:38.627Z,3.10
2017-11-13T23:07:06.218Z,3.00
2017-11-13T23:09:35.324Z,3.30
2017-11-13T23:12:03.656Z,3.30
2017-11-13T23:14:32.922Z,3.20
2017-11-13T23:17:00.530Z,3.20
2017-11-13T23:19:28.135Z,3.30
2017-11-13T23:21:55.734Z,3.40
2017-11-13T23:24:23.300Z,3.40
2017-11-13T23:26:50.928Z,3.50
2017-11-13T23:29:18.517Z,3.70
2017-11-13T23:31:46.137Z,3.80
2017-11-13T23:34:14.518Z,3.60
2017-11-13T23:36:42.113Z,3.60
2017-11-13T23:39:09.770Z,3.60
2017-11-13T23:41:37.351Z,3.70
2017-11-13T23:44:04.927Z,3.60
2017-11-13T23:46:32.542Z,3.40
2017-11-13T23:49:00.119Z,3.50
2017-11-13T23:51:27.698Z,3.70
2017-11-13T23:53:55.320Z,3.70
2017-11-13T23:56:22.889Z,3.80
2017-11-13T23:58:50.461Z,3.70
